sensor_id;sensor_type;location;lat;lon;timestamp;P1;durP1;ratioP1;P2;durP2;ratioP2
8139;SDS011;4111;50.972;7.072;2022-12-18T00:01:18;10.73;;;7.87;;
8139;SDS011;4111;50.972;7.072;2022-12-18T00:03:46;11.83;;;8.47;;
8139;SDS011;4111;50.972;7.072;2022-12-18T00:06:13;12.80;;;7.43;;
8139;SDS011;4111;50.972;7.072;2022-12-18T00:08:41;10.87;;;7.63;;
8139;SDS011;4111;50.972;7.072;2022-12-18T00:11:10;13.03;;;8.23;;
8139;SDS011;4111;50.972;7.072;2022-12-18T00:13:37;14.43;;;8.87;;
8139;SDS011;4111;50.972;7.072;2022-12-18T00:16:15;11.70;;;8.03;;
8139;SDS011;4111;50.972;7.072;2022-12-18T00:18:46;11.03;;;7.30;;
8139;SDS011;4111;50.972;7.072;2022-12-18T00:21:13;11.00;;;7.27;;
8139;SDS011;4111;50.972;7.072;2022-12-18T00:23:41;10.60;;;7.77;;
8139;SDS011;4111;50.972;7.072;2022-12-18T00:26:16;9.83;;;7.53;;
8139;SDS011;4111;50.972;7.072;2022-12-18T00:28:44;12.57;;;7.53;;
8139;SDS011;4111;50.972;7.072;2022-12-18T00:31:12;12.00;;;7.13;;
8139;SDS011;4111;50.972;7.072;2022-12-18T00:33:41;11.80;;;7.27;;
8139;SDS011;4111;50.972;7.072;2022-12-18T00:36:15;11.67;;;7.40;;
8139;SDS011;4111;50.972;7.072;2022-12-18T00:38:43;10.17;;;7.37;;
8139;SDS011;4111;50.972;7.072;2022-12-18T00:41:11;10.07;;;7.73;;
8139;SDS011;4111;50.972;7.072;2022-12-18T00:43:40;10.00;;;7.10;;
8139;SDS011;4111;50.972;7.072;2022-12-18T00:46:07;10.37;;;8.00;;
8139;SDS011;4111;50.972;7.072;2022-12-18T00:48:34;13.30;;;8.33;;
8139;SDS011;4111;50.972;7.072;2022-12-18T00:51:01;12.43;;;8.00;;
8139;SDS011;4111;50.972;7.072;2022-12-18T00:53:27;11.17;;;6.87;;
8139;SDS011;4111;50.972;7.072;2022-12-18T00:55:54;9.77;;;6.73;;
8139;SDS011;4111;50.972;7.072;2022-12-18T00:58:20;11.23;;;7.20;;
8139;SDS011;4111;50.972;7.072;2022-12-18T01:00:46;10.10;;;7.27;;
8139;SDS011;4111;50.972;7.072;2022-12-18T01:03:13;10.43;;;7.37;;
8139;SDS011;4111;50.972;7.072;2022-12-18T01:05:41;8.80;;;6.73;;
8139;SDS011;4111;50.972;7.072;2022-12-18T01:08:08;10.77;;;7.23;;
8139;SDS011;4111;50.972;7.072;2022-12-18T01:10:35;10.47;;;7.17;;
8139;SDS011;4111;50.972;7.072;2022-12-18T01:13:01;10.33;;;7.47;;
8139;SDS011;4111;50.972;7.072;2022-12-18T01:15:28;11.13;;;8.13;;
8139;SDS011;4111;50.972;7.072;2022-12-18T01:17:54;11.20;;;7.40;;
8139;SDS011;4111;50.972;7.072;2022-12-18T01:20:21;9.60;;;8.00;;
8139;SDS011;4111;50.972;7.072;2022-12-18T01:22:47;11.27;;;7.60;;
8139;SDS011;4111;50.972;7.072;2022-12-18T01:25:13;10.70;;;7.20;;
8139;SDS011;4111;50.972;7.072;2022-12-18T01:27:40;10.37;;;7.27;;
8139;SDS011;4111;50.972;7.072;2022-12-18T01:30:07;10.03;;;7.40;;
8139;SDS011;4111;50.972;7.072;2022-12-18T01:32:33;9.50;;;7.37;;
8139;SDS011;4111;50.972;7.072;2022-12-18T01:35:01;9.83;;;7.40;;
8139;SDS011;4111;50.972;7.072;2022-12-18T01:37:28;9.90;;;7.23;;
8139;SDS011;4111;50.972;7.072;2022-12-18T01:39:54;12.67;;;7.47;;
8139;SDS011;4111;50.972;7.072;2022-12-18T01:42:22;10.17;;;6.90;;
8139;SDS011;4111;50.972;7.072;2022-12-18T01:44:57;9.67;;;6.53;;
8139;SDS011;4111;50.972;7.072;2022-12-18T01:48:03;9.57;;;6.70;;
8139;SDS011;4111;50.972;7.072;2022-12-18T01:50:36;9.20;;;6.33;;
8139;SDS011;4111;50.972;7.072;2022-12-18T01:53:07;7.47;;;6.00;;
8139;SDS011;4111;50.972;7.072;2022-12-18T01:55:39;10.40;;;6.40;;
8139;SDS011;4111;50.972;7.072;2022-12-18T01:58:09;9.93;;;7.10;;
8139;SDS011;4111;50.972;7.072;2022-12-18T02:00:36;10.30;;;6.83;;
8139;SDS011;4111;50.972;7.072;2022-12-18T02:03:02;9.67;;;5.70;;
8139;SDS011;4111;50.972;7.072;2022-12-18T02:13:46;11.10;;;6.90;;
8139;SDS011;4111;50.972;7.072;2022-12-18T02:19:21;10.03;;;6.50;;
8139;SDS011;4111;50.972;7.072;2022-12-18T02:22:14;8.27;;;6.40;;
8139;SDS011;4111;50.972;7.072;2022-12-18T02:28:17;10.13;;;7.03;;
8139;SDS011;4111;50.972;7.072;2022-12-18T02:30:48;11.60;;;7.50;;
8139;SDS011;4111;50.972;7.072;2022-12-18T02:33:19;10.77;;;7.80;;
8139;SDS011;4111;50.972;7.072;2022-12-18T02:35:51;9.57;;;7.03;;
8139;SDS011;4111;50.972;7.072;2022-12-18T02:38:20;12.83;;;8.10;;
8139;SDS011;4111;50.972;7.072;2022-12-18T02:40:47;11.37;;;7.33;;
8139;SDS011;4111;50.972;7.072;2022-12-18T02:43:16;10.53;;;7.07;;
8139;SDS011;4111;50.972;7.072;2022-12-18T02:45:50;11.27;;;7.33;;
8139;SDS011;4111;50.972;7.072;2022-12-18T02:48:22;8.97;;;6.47;;
8139;SDS011;4111;50.972;7.072;2022-12-18T02:51:03;10.47;;;7.03;;
8139;SDS011;4111;50.972;7.072;2022-12-18T02:53:45;10.80;;;7.33;;
8139;SDS011;4111;50.972;7.072;2022-12-18T02:56:25;11.30;;;7.53;;
8139;SDS011;4111;50.972;7.072;2022-12-18T02:59:01;9.00;;;6.33;;
8139;SDS011;4111;50.972;7.072;2022-12-18T03:01:40;9.60;;;7.10;;
8139;SDS011;4111;50.972;7.072;2022-12-18T03:04:21;8.47;;;6.23;;
8139;SDS011;4111;50.972;7.072;2022-12-18T03:06:49;10.37;;;6.43;;
8139;SDS011;4111;50.972;7.072;2022-12-18T03:09:35;8.90;;;6.30;;
8139;SDS011;4111;50.972;7.072;2022-12-18T03:15:21;10.17;;;6.90;;
8139;SDS011;4111;50.972;7.072;2022-12-18T03:17:59;12.00;;;6.37;;
8139;SDS011;4111;50.972;7.072;2022-12-18T03:20:37;12.43;;;7.20;;
8139;SDS011;4111;50.972;7.072;2022-12-18T03:23:09;9.10;;;6.40;;
8139;SDS011;4111;50.972;7.072;2022-12-18T03:25:43;9.93;;;7.03;;
8139;SDS011;4111;50.972;7.072;2022-12-18T03:28:13;13.03;;;6.57;;
8139;SDS011;4111;50.972;7.072;2022-12-18T03:30:43;10.57;;;6.83;;
8139;SDS011;4111;50.972;7.072;2022-12-18T03:33:13;8.60;;;6.13;;
8139;SDS011;4111;50.972;7.072;2022-12-18T03:35:45;9.57;;;6.87;;
8139;SDS011;4111;50.972;7.072;2022-12-18T03:38:12;10.00;;;6.40;;
8139;SDS011;4111;50.972;7.072;2022-12-18T03:43:34;8.20;;;6.13;;
8139;SDS011;4111;50.972;7.072;2022-12-18T03:46:27;10.47;;;6.30;;
8139;SDS011;4111;50.972;7.072;2022-12-18T03:49:01;11.20;;;6.50;;
8139;SDS011;4111;50.972;7.072;2022-12-18T03:51:39;8.97;;;6.70;;
8139;SDS011;4111;50.972;7.072;2022-12-18T03:54:10;7.70;;;6.23;;
8139;SDS011;4111;50.972;7.072;2022-12-18T03:56:42;8.77;;;6.63;;
8139;SDS011;4111;50.972;7.072;2022-12-18T03:59:13;12.47;;;5.90;;
8139;SDS011;4111;50.972;7.072;2022-12-18T04:01:45;10.80;;;6.30;;
8139;SDS011;4111;50.972;7.072;2022-12-18T04:04:14;13.47;;;6.23;;
8139;SDS011;4111;50.972;7.072;2022-12-18T04:06:42;10.97;;;6.83;;
8139;SDS011;4111;50.972;7.072;2022-12-18T04:09:10;8.73;;;6.37;;
8139;SDS011;4111;50.972;7.072;2022-12-18T04:11:37;12.60;;;7.30;;
8139;SDS011;4111;50.972;7.072;2022-12-18T04:14:05;8.70;;;6.10;;
8139;SDS011;4111;50.972;7.072;2022-12-18T04:16:32;7.83;;;5.73;;
8139;SDS011;4111;50.972;7.072;2022-12-18T04:18:59;9.13;;;6.47;;
8139;SDS011;4111;50.972;7.072;2022-12-18T04:21:25;7.07;;;5.73;;
8139;SDS011;4111;50.972;7.072;2022-12-18T04:23:52;8.47;;;5.77;;
8139;SDS011;4111;50.972;7.072;2022-12-18T04:26:18;10.50;;;6.87;;
8139;SDS011;4111;50.972;7.072;2022-12-18T04:28:45;11.27;;;6.30;;
8139;SDS011;4111;50.972;7.072;2022-12-18T04:31:12;10.80;;;6.20;;
8139;SDS011;4111;50.972;7.072;2022-12-18T04:33:39;10.10;;;6.57;;
8139;SDS011;4111;50.972;7.072;2022-12-18T04:36:06;8.00;;;5.57;;
8139;SDS011;4111;50.972;7.072;2022-12-18T04:38:33;7.17;;;5.80;;
8139;SDS011;4111;50.972;7.072;2022-12-18T04:40:59;11.07;;;6.50;;
8139;SDS011;4111;50.972;7.072;2022-12-18T04:43:26;9.63;;;6.20;;
8139;SDS011;4111;50.972;7.072;2022-12-18T04:45:52;8.03;;;5.60;;
8139;SDS011;4111;50.972;7.072;2022-12-18T04:48:19;7.87;;;6.07;;
8139;SDS011;4111;50.972;7.072;2022-12-18T04:50:46;13.93;;;7.00;;
8139;SDS011;4111;50.972;7.072;2022-12-18T04:53:14;10.10;;;6.10;;
8139;SDS011;4111;50.972;7.072;2022-12-18T04:55:40;9.27;;;5.73;;
8139;SDS011;4111;50.972;7.072;2022-12-18T04:58:07;8.57;;;6.40;;
8139;SDS011;4111;50.972;7.072;2022-12-18T05:00:34;11.33;;;6.13;;
8139;SDS011;4111;50.972;7.072;2022-12-18T05:03:01;8.50;;;6.17;;
8139;SDS011;4111;50.972;7.072;2022-12-18T05:05:28;8.37;;;5.97;;
8139;SDS011;4111;50.972;7.072;2022-12-18T05:07:55;7.77;;;5.73;;
8139;SDS011;4111;50.972;7.072;2022-12-18T05:10:21;7.23;;;5.47;;
8139;SDS011;4111;50.972;7.072;2022-12-18T05:12:48;7.70;;;6.07;;
8139;SDS011;4111;50.972;7.072;2022-12-18T05:15:27;7.23;;;5.70;;
8139;SDS011;4111;50.972;7.072;2022-12-18T05:17:58;8.57;;;5.80;;
8139;SDS011;4111;50.972;7.072;2022-12-18T05:20:25;7.97;;;6.00;;
8139;SDS011;4111;50.972;7.072;2022-12-18T05:22:53;11.17;;;5.93;;
8139;SDS011;4111;50.972;7.072;2022-12-18T05:25:20;7.83;;;5.93;;
8139;SDS011;4111;50.972;7.072;2022-12-18T05:27:48;9.50;;;6.00;;
8139;SDS011;4111;50.972;7.072;2022-12-18T05:30:15;8.53;;;5.13;;
8139;SDS011;4111;50.972;7.072;2022-12-18T05:32:41;9.27;;;6.00;;
8139;SDS011;4111;50.972;7.072;2022-12-18T05:35:10;10.27;;;6.57;;
8139;SDS011;4111;50.972;7.072;2022-12-18T05:37:38;7.47;;;5.47;;
8139;SDS011;4111;50.972;7.072;2022-12-18T05:40:08;8.90;;;5.90;;
8139;SDS011;4111;50.972;7.072;2022-12-18T05:42:36;7.53;;;5.53;;
8139;SDS011;4111;50.972;7.072;2022-12-18T05:45:03;6.70;;;5.20;;
8139;SDS011;4111;50.972;7.072;2022-12-18T05:47:30;8.23;;;6.17;;
8139;SDS011;4111;50.972;7.072;2022-12-18T05:49:57;8.43;;;6.00;;
8139;SDS011;4111;50.972;7.072;2022-12-18T05:52:23;8.33;;;5.80;;
8139;SDS011;4111;50.972;7.072;2022-12-18T05:54:50;11.77;;;5.97;;
8139;SDS011;4111;50.972;7.072;2022-12-18T05:57:17;8.23;;;5.60;;
8139;SDS011;4111;50.972;7.072;2022-12-18T05:59:43;9.27;;;5.97;;
8139;SDS011;4111;50.972;7.072;2022-12-18T06:02:10;10.30;;;5.73;;
8139;SDS011;4111;50.972;7.072;2022-12-18T06:04:36;9.47;;;5.97;;
8139;SDS011;4111;50.972;7.072;2022-12-18T06:07:03;9.17;;;6.30;;
8139;SDS011;4111;50.972;7.072;2022-12-18T06:09:29;9.13;;;6.00;;
8139;SDS011;4111;50.972;7.072;2022-12-18T06:11:56;7.03;;;5.13;;
8139;SDS011;4111;50.972;7.072;2022-12-18T06:14:22;7.13;;;5.60;;
8139;SDS011;4111;50.972;7.072;2022-12-18T06:16:50;9.27;;;5.70;;
8139;SDS011;4111;50.972;7.072;2022-12-18T06:19:17;8.23;;;6.00;;
8139;SDS011;4111;50.972;7.072;2022-12-18T06:21:44;7.83;;;6.00;;
8139;SDS011;4111;50.972;7.072;2022-12-18T06:24:11;10.87;;;6.23;;
8139;SDS011;4111;50.972;7.072;2022-12-18T06:26:38;8.67;;;5.40;;
8139;SDS011;4111;50.972;7.072;2022-12-18T06:29:05;10.20;;;5.47;;
8139;SDS011;4111;50.972;7.072;2022-12-18T06:31:31;8.07;;;6.07;;
8139;SDS011;4111;50.972;7.072;2022-12-18T06:33:58;7.77;;;5.43;;
8139;SDS011;4111;50.972;7.072;2022-12-18T06:36:24;9.80;;;5.97;;
8139;SDS011;4111;50.972;7.072;2022-12-18T06:38:51;8.07;;;5.23;;
8139;SDS011;4111;50.972;7.072;2022-12-18T06:41:18;9.17;;;6.77;;
8139;SDS011;4111;50.972;7.072;2022-12-18T06:43:46;10.70;;;7.07;;
8139;SDS011;4111;50.972;7.072;2022-12-18T06:46:13;12.93;;;7.40;;
8139;SDS011;4111;50.972;7.072;2022-12-18T06:48:40;16.17;;;7.80;;
8139;SDS011;4111;50.972;7.072;2022-12-18T06:51:06;8.80;;;7.17;;
8139;SDS011;4111;50.972;7.072;2022-12-18T06:53:33;8.77;;;6.33;;
8139;SDS011;4111;50.972;7.072;2022-12-18T06:56:01;10.40;;;6.27;;
8139;SDS011;4111;50.972;7.072;2022-12-18T06:58:35;9.50;;;6.73;;
8139;SDS011;4111;50.972;7.072;2022-12-18T07:01:02;12.00;;;6.93;;
8139;SDS011;4111;50.972;7.072;2022-12-18T07:03:31;9.77;;;6.93;;
8139;SDS011;4111;50.972;7.072;2022-12-18T07:05:57;9.93;;;7.00;;
8139;SDS011;4111;50.972;7.072;2022-12-18T07:08:24;8.67;;;7.13;;
8139;SDS011;4111;50.972;7.072;2022-12-18T07:10:51;9.23;;;6.80;;
8139;SDS011;4111;50.972;7.072;2022-12-18T07:13:21;13.13;;;7.50;;
8139;SDS011;4111;50.972;7.072;2022-12-18T07:15:48;11.53;;;7.10;;
8139;SDS011;4111;50.972;7.072;2022-12-18T07:18:15;12.63;;;7.10;;
8139;SDS011;4111;50.972;7.072;2022-12-18T07:20:41;11.03;;;7.43;;
8139;SDS011;4111;50.972;7.072;2022-12-18T07:23:08;10.37;;;7.60;;
8139;SDS011;4111;50.972;7.072;2022-12-18T07:25:35;11.47;;;7.40;;
8139;SDS011;4111;50.972;7.072;2022-12-18T07:28:02;12.33;;;7.07;;
8139;SDS011;4111;50.972;7.072;2022-12-18T07:30:29;12.00;;;7.70;;
8139;SDS011;4111;50.972;7.072;2022-12-18T07:32:56;11.47;;;7.77;;
8139;SDS011;4111;50.972;7.072;2022-12-18T07:35:22;9.27;;;6.97;;
8139;SDS011;4111;50.972;7.072;2022-12-18T07:37:50;11.83;;;7.30;;
8139;SDS011;4111;50.972;7.072;2022-12-18T07:40:17;11.87;;;8.07;;
8139;SDS011;4111;50.972;7.072;2022-12-18T07:42:43;10.50;;;7.07;;
8139;SDS011;4111;50.972;7.072;2022-12-18T07:45:10;10.80;;;7.53;;
8139;SDS011;4111;50.972;7.072;2022-12-18T07:47:37;9.37;;;7.07;;
8139;SDS011;4111;50.972;7.072;2022-12-18T07:50:03;9.40;;;7.27;;
8139;SDS011;4111;50.972;7.072;2022-12-18T07:52:30;13.90;;;7.50;;
8139;SDS011;4111;50.972;7.072;2022-12-18T07:54:58;10.43;;;7.20;;
8139;SDS011;4111;50.972;7.072;2022-12-18T07:57:24;10.67;;;7.53;;
8139;SDS011;4111;50.972;7.072;2022-12-18T08:00:11;9.97;;;7.07;;
8139;SDS011;4111;50.972;7.072;2022-12-18T08:02:38;13.27;;;7.83;;
8139;SDS011;4111;50.972;7.072;2022-12-18T08:05:05;10.40;;;7.50;;
8139;SDS011;4111;50.972;7.072;2022-12-18T08:07:32;11.47;;;7.57;;
8139;SDS011;4111;50.972;7.072;2022-12-18T08:09:58;7.93;;;6.50;;
8139;SDS011;4111;50.972;7.072;2022-12-18T08:12:25;9.97;;;7.37;;
8139;SDS011;4111;50.972;7.072;2022-12-18T08:14:51;12.37;;;8.37;;
8139;SDS011;4111;50.972;7.072;2022-12-18T08:17:18;14.70;;;9.07;;
8139;SDS011;4111;50.972;7.072;2022-12-18T08:19:46;11.17;;;8.30;;
8139;SDS011;4111;50.972;7.072;2022-12-18T08:22:12;12.43;;;9.33;;
8139;SDS011;4111;50.972;7.072;2022-12-18T08:24:39;14.07;;;8.60;;
8139;SDS011;4111;50.972;7.072;2022-12-18T08:27:05;16.40;;;9.87;;
8139;SDS011;4111;50.972;7.072;2022-12-18T08:29:52;16.87;;;10.17;;
8139;SDS011;4111;50.972;7.072;2022-12-18T08:32:18;13.83;;;9.20;;
8139;SDS011;4111;50.972;7.072;2022-12-18T08:34:45;16.00;;;9.57;;
8139;SDS011;4111;50.972;7.072;2022-12-18T08:37:11;15.93;;;9.77;;
8139;SDS011;4111;50.972;7.072;2022-12-18T08:39:38;14.97;;;8.37;;
8139;SDS011;4111;50.972;7.072;2022-12-18T08:42:04;17.90;;;10.93;;
8139;SDS011;4111;50.972;7.072;2022-12-18T08:44:49;17.63;;;12.00;;
8139;SDS011;4111;50.972;7.072;2022-12-18T08:47:16;14.33;;;10.83;;
8139;SDS011;4111;50.972;7.072;2022-12-18T08:49:42;14.07;;;9.93;;
8139;SDS011;4111;50.972;7.072;2022-12-18T08:52:09;14.47;;;9.57;;
8139;SDS011;4111;50.972;7.072;2022-12-18T08:54:35;12.47;;;9.10;;
8139;SDS011;4111;50.972;7.072;2022-12-18T08:57:02;13.20;;;9.30;;
8139;SDS011;4111;50.972;7.072;2022-12-18T08:59:28;15.33;;;9.60;;
8139;SDS011;4111;50.972;7.072;2022-12-18T09:01:54;12.30;;;9.60;;
8139;SDS011;4111;50.972;7.072;2022-12-18T09:04:21;13.30;;;9.10;;
8139;SDS011;4111;50.972;7.072;2022-12-18T09:06:48;15.83;;;9.73;;
8139;SDS011;4111;50.972;7.072;2022-12-18T09:09:15;13.23;;;9.00;;
8139;SDS011;4111;50.972;7.072;2022-12-18T09:11:41;18.40;;;11.63;;
8139;SDS011;4111;50.972;7.072;2022-12-18T09:14:08;19.97;;;11.10;;
8139;SDS011;4111;50.972;7.072;2022-12-18T09:16:35;20.47;;;10.73;;
8139;SDS011;4111;50.972;7.072;2022-12-18T09:19:02;14.07;;;9.33;;
8139;SDS011;4111;50.972;7.072;2022-12-18T09:21:31;12.23;;;8.47;;
8139;SDS011;4111;50.972;7.072;2022-12-18T09:24:02;9.47;;;7.27;;
8139;SDS011;4111;50.972;7.072;2022-12-18T09:26:32;12.17;;;7.70;;
8139;SDS011;4111;50.972;7.072;2022-12-18T09:28:58;9.57;;;7.30;;
8139;SDS011;4111;50.972;7.072;2022-12-18T09:31:25;11.07;;;7.90;;
8139;SDS011;4111;50.972;7.072;2022-12-18T09:33:51;10.40;;;7.37;;
8139;SDS011;4111;50.972;7.072;2022-12-18T09:36:18;9.70;;;7.40;;
8139;SDS011;4111;50.972;7.072;2022-12-18T09:38:46;7.90;;;6.50;;
8139;SDS011;4111;50.972;7.072;2022-12-18T09:43:47;8.97;;;7.00;;
8139;SDS011;4111;50.972;7.072;2022-12-18T09:46:17;10.40;;;7.47;;
8139;SDS011;4111;50.972;7.072;2022-12-18T09:48:52;12.30;;;7.83;;
8139;SDS011;4111;50.972;7.072;2022-12-18T09:51:25;10.07;;;7.47;;
8139;SDS011;4111;50.972;7.072;2022-12-18T09:53:57;11.23;;;7.80;;
8139;SDS011;4111;50.972;7.072;2022-12-18T09:56:31;7.87;;;6.63;;
8139;SDS011;4111;50.972;7.072;2022-12-18T09:59:03;9.53;;;7.00;;
8139;SDS011;4111;50.972;7.072;2022-12-18T10:01:31;11.73;;;7.10;;
8139;SDS011;4111;50.972;7.072;2022-12-18T10:04:09;9.43;;;6.90;;
8139;SDS011;4111;50.972;7.072;2022-12-18T10:06:42;8.37;;;7.13;;
8139;SDS011;4111;50.972;7.072;2022-12-18T10:11:59;9.73;;;7.40;;
8139;SDS011;4111;50.972;7.072;2022-12-18T10:17:45;10.77;;;7.57;;
8139;SDS011;4111;50.972;7.072;2022-12-18T10:25:55;9.40;;;6.20;;
8139;SDS011;4111;50.972;7.072;2022-12-18T10:28:24;9.83;;;7.47;;
8139;SDS011;4111;50.972;7.072;2022-12-18T10:30:52;9.47;;;7.10;;
8139;SDS011;4111;50.972;7.072;2022-12-18T10:33:20;8.63;;;6.67;;
8139;SDS011;4111;50.972;7.072;2022-12-18T10:35:49;9.10;;;7.20;;
8139;SDS011;4111;50.972;7.072;2022-12-18T10:40:53;11.20;;;7.70;;
8139;SDS011;4111;50.972;7.072;2022-12-18T10:56:28;11.67;;;7.80;;
8139;SDS011;4111;50.972;7.072;2022-12-18T10:59:03;19.87;;;11.83;;
8139;SDS011;4111;50.972;7.072;2022-12-18T11:09:22;9.63;;;7.80;;
8139;SDS011;4111;50.972;7.072;2022-12-18T11:11:51;12.43;;;8.40;;
8139;SDS011;4111;50.972;7.072;2022-12-18T11:14:21;9.60;;;7.43;;
8139;SDS011;4111;50.972;7.072;2022-12-18T11:16:53;11.37;;;8.63;;
8139;SDS011;4111;50.972;7.072;2022-12-18T11:19:41;9.97;;;7.70;;
8139;SDS011;4111;50.972;7.072;2022-12-18T11:22:18;11.63;;;8.50;;
8139;SDS011;4111;50.972;7.072;2022-12-18T11:28:00;11.43;;;7.93;;
8139;SDS011;4111;50.972;7.072;2022-12-18T11:30:33;11.93;;;9.30;;
8139;SDS011;4111;50.972;7.072;2022-12-18T11:33:12;10.30;;;7.83;;
8139;SDS011;4111;50.972;7.072;2022-12-18T11:35:49;11.10;;;9.00;;
8139;SDS011;4111;50.972;7.072;2022-12-18T11:40:53;12.53;;;8.80;;
8139;SDS011;4111;50.972;7.072;2022-12-18T11:46:09;12.33;;;9.50;;
8139;SDS011;4111;50.972;7.072;2022-12-18T11:48:46;12.57;;;8.37;;
8139;SDS011;4111;50.972;7.072;2022-12-18T11:51:20;10.97;;;8.70;;
8139;SDS011;4111;50.972;7.072;2022-12-18T11:54:00;11.00;;;8.10;;
8139;SDS011;4111;50.972;7.072;2022-12-18T11:56:39;13.13;;;9.03;;
8139;SDS011;4111;50.972;7.072;2022-12-18T11:59:37;13.27;;;8.40;;
8139;SDS011;4111;50.972;7.072;2022-12-18T12:02:47;11.87;;;8.67;;
8139;SDS011;4111;50.972;7.072;2022-12-18T12:11:19;12.00;;;8.67;;
8139;SDS011;4111;50.972;7.072;2022-12-18T12:17:04;11.87;;;8.37;;
8139;SDS011;4111;50.972;7.072;2022-12-18T12:22:25;13.67;;;9.10;;
8139;SDS011;4111;50.972;7.072;2022-12-18T12:27:52;13.33;;;10.30;;
8139;SDS011;4111;50.972;7.072;2022-12-18T12:30:32;16.07;;;10.87;;
8139;SDS011;4111;50.972;7.072;2022-12-18T12:33:22;11.93;;;9.13;;
8139;SDS011;4111;50.972;7.072;2022-12-18T12:38:44;13.10;;;9.67;;
8139;SDS011;4111;50.972;7.072;2022-12-18T12:41:27;14.50;;;10.30;;
8139;SDS011;4111;50.972;7.072;2022-12-18T12:44:51;15.27;;;11.13;;
8139;SDS011;4111;50.972;7.072;2022-12-18T12:47:37;14.07;;;10.40;;
8139;SDS011;4111;50.972;7.072;2022-12-18T12:50:12;14.87;;;10.43;;
8139;SDS011;4111;50.972;7.072;2022-12-18T12:52:43;15.20;;;10.67;;
8139;SDS011;4111;50.972;7.072;2022-12-18T12:55:19;18.50;;;10.33;;
8139;SDS011;4111;50.972;7.072;2022-12-18T13:00:23;13.80;;;10.47;;
8139;SDS011;4111;50.972;7.072;2022-12-18T13:03:11;16.77;;;10.00;;
8139;SDS011;4111;50.972;7.072;2022-12-18T13:05:48;13.33;;;9.83;;
8139;SDS011;4111;50.972;7.072;2022-12-18T13:08:24;16.97;;;11.47;;
8139;SDS011;4111;50.972;7.072;2022-12-18T13:10:57;15.70;;;10.70;;
8139;SDS011;4111;50.972;7.072;2022-12-18T13:13:51;15.17;;;11.23;;
8139;SDS011;4111;50.972;7.072;2022-12-18T13:16:24;17.33;;;11.43;;
8139;SDS011;4111;50.972;7.072;2022-12-18T13:18:52;17.33;;;10.60;;
8139;SDS011;4111;50.972;7.072;2022-12-18T13:21:29;15.83;;;10.83;;
8139;SDS011;4111;50.972;7.072;2022-12-18T13:24:15;17.67;;;10.80;;
8139;SDS011;4111;50.972;7.072;2022-12-18T13:26:47;16.17;;;11.30;;
8139;SDS011;4111;50.972;7.072;2022-12-18T13:29:39;16.30;;;11.07;;
8139;SDS011;4111;50.972;7.072;2022-12-18T13:32:18;16.53;;;11.30;;
8139;SDS011;4111;50.972;7.072;2022-12-18T13:37:51;14.40;;;9.53;;
8139;SDS011;4111;50.972;7.072;2022-12-18T13:51:26;18.17;;;12.17;;
8139;SDS011;4111;50.972;7.072;2022-12-18T13:53:56;16.83;;;12.07;;
8139;SDS011;4111;50.972;7.072;2022-12-18T13:56:30;13.60;;;9.77;;
8139;SDS011;4111;50.972;7.072;2022-12-18T14:01:46;18.23;;;12.20;;
8139;SDS011;4111;50.972;7.072;2022-12-18T14:04:26;17.90;;;10.93;;
8139;SDS011;4111;50.972;7.072;2022-12-18T14:07:01;17.13;;;11.50;;
8139;SDS011;4111;50.972;7.072;2022-12-18T14:09:31;16.43;;;11.80;;
8139;SDS011;4111;50.972;7.072;2022-12-18T14:12:02;17.43;;;12.20;;
8139;SDS011;4111;50.972;7.072;2022-12-18T14:14:48;17.13;;;12.83;;
8139;SDS011;4111;50.972;7.072;2022-12-18T14:17:20;17.53;;;12.07;;
8139;SDS011;4111;50.972;7.072;2022-12-18T14:19:47;20.10;;;12.20;;
8139;SDS011;4111;50.972;7.072;2022-12-18T14:22:17;17.57;;;11.93;;
8139;SDS011;4111;50.972;7.072;2022-12-18T14:27:42;14.30;;;10.73;;
8139;SDS011;4111;50.972;7.072;2022-12-18T14:33:09;18.13;;;12.40;;
8139;SDS011;4111;50.972;7.072;2022-12-18T14:35:37;18.50;;;12.27;;
8139;SDS011;4111;50.972;7.072;2022-12-18T14:40:55;18.00;;;12.83;;
8139;SDS011;4111;50.972;7.072;2022-12-18T14:43:46;17.83;;;12.00;;
8139;SDS011;4111;50.972;7.072;2022-12-18T14:46:32;20.27;;;12.23;;
8139;SDS011;4111;50.972;7.072;2022-12-18T14:52:03;18.23;;;12.23;;
8139;SDS011;4111;50.972;7.072;2022-12-18T14:54:33;18.00;;;12.90;;
8139;SDS011;4111;50.972;7.072;2022-12-18T14:57:05;19.10;;;14.23;;
8139;SDS011;4111;50.972;7.072;2022-12-18T14:59:43;22.10;;;13.37;;
8139;SDS011;4111;50.972;7.072;2022-12-18T15:02:12;19.87;;;13.23;;
8139;SDS011;4111;50.972;7.072;2022-12-18T15:04:42;19.87;;;13.33;;
8139;SDS011;4111;50.972;7.072;2022-12-18T15:07:17;15.50;;;10.83;;
8139;SDS011;4111;50.972;7.072;2022-12-18T15:10:08;18.30;;;12.70;;
8139;SDS011;4111;50.972;7.072;2022-12-18T15:23:22;18.17;;;12.87;;
8139;SDS011;4111;50.972;7.072;2022-12-18T15:26:09;19.83;;;13.73;;
8139;SDS011;4111;50.972;7.072;2022-12-18T15:28:43;22.17;;;14.47;;
8139;SDS011;4111;50.972;7.072;2022-12-18T15:33:44;17.97;;;12.97;;
8139;SDS011;4111;50.972;7.072;2022-12-18T15:36:26;18.03;;;12.33;;
8139;SDS011;4111;50.972;7.072;2022-12-18T15:38:56;22.10;;;14.23;;
8139;SDS011;4111;50.972;7.072;2022-12-18T15:41:34;19.70;;;13.50;;
8139;SDS011;4111;50.972;7.072;2022-12-18T15:44:02;18.70;;;13.80;;
8139;SDS011;4111;50.972;7.072;2022-12-18T15:46:46;21.13;;;14.70;;
8139;SDS011;4111;50.972;7.072;2022-12-18T15:49:12;21.60;;;13.73;;
8139;SDS011;4111;50.972;7.072;2022-12-18T15:51:39;21.50;;;14.67;;
8139;SDS011;4111;50.972;7.072;2022-12-18T15:54:06;20.77;;;13.30;;
8139;SDS011;4111;50.972;7.072;2022-12-18T15:56:38;22.17;;;14.53;;
8139;SDS011;4111;50.972;7.072;2022-12-18T15:59:23;20.57;;;14.17;;
8139;SDS011;4111;50.972;7.072;2022-12-18T16:01:50;23.30;;;14.57;;
8139;SDS011;4111;50.972;7.072;2022-12-18T16:04:19;20.80;;;14.57;;
8139;SDS011;4111;50.972;7.072;2022-12-18T16:06:48;22.63;;;14.73;;
8139;SDS011;4111;50.972;7.072;2022-12-18T16:09:35;20.87;;;15.83;;
8139;SDS011;4111;50.972;7.072;2022-12-18T16:12:02;23.37;;;14.87;;
8139;SDS011;4111;50.972;7.072;2022-12-18T16:14:29;19.90;;;14.90;;
8139;SDS011;4111;50.972;7.072;2022-12-18T16:16:58;23.40;;;15.70;;
8139;SDS011;4111;50.972;7.072;2022-12-18T16:19:27;20.57;;;14.43;;
8139;SDS011;4111;50.972;7.072;2022-12-18T16:21:55;24.03;;;15.07;;
8139;SDS011;4111;50.972;7.072;2022-12-18T16:24:24;28.33;;;15.13;;
8139;SDS011;4111;50.972;7.072;2022-12-18T16:26:56;22.63;;;15.40;;
8139;SDS011;4111;50.972;7.072;2022-12-18T16:29:25;23.47;;;15.40;;
8139;SDS011;4111;50.972;7.072;2022-12-18T16:31:57;21.23;;;14.13;;
8139;SDS011;4111;50.972;7.072;2022-12-18T16:34:32;21.33;;;15.67;;
8139;SDS011;4111;50.972;7.072;2022-12-18T16:37:02;24.57;;;16.13;;
8139;SDS011;4111;50.972;7.072;2022-12-18T16:39:34;25.30;;;16.03;;
8139;SDS011;4111;50.972;7.072;2022-12-18T16:42:03;30.47;;;16.57;;
8139;SDS011;4111;50.972;7.072;2022-12-18T16:44:38;25.67;;;16.40;;
8139;SDS011;4111;50.972;7.072;2022-12-18T16:47:04;24.43;;;16.07;;
8139;SDS011;4111;50.972;7.072;2022-12-18T16:49:33;24.37;;;15.40;;
8139;SDS011;4111;50.972;7.072;2022-12-18T16:52:00;25.23;;;17.03;;
8139;SDS011;4111;50.972;7.072;2022-12-18T16:54:26;28.83;;;17.77;;
8139;SDS011;4111;50.972;7.072;2022-12-18T16:56:55;24.40;;;15.60;;
8139;SDS011;4111;50.972;7.072;2022-12-18T16:59:22;24.33;;;16.07;;
8139;SDS011;4111;50.972;7.072;2022-12-18T17:01:49;25.10;;;16.63;;
8139;SDS011;4111;50.972;7.072;2022-12-18T17:04:15;24.83;;;16.50;;
8139;SDS011;4111;50.972;7.072;2022-12-18T17:06:43;24.70;;;16.37;;
8139;SDS011;4111;50.972;7.072;2022-12-18T17:09:11;26.53;;;15.77;;
8139;SDS011;4111;50.972;7.072;2022-12-18T17:11:41;28.03;;;17.30;;
8139;SDS011;4111;50.972;7.072;2022-12-18T17:14:09;25.20;;;16.03;;
8139;SDS011;4111;50.972;7.072;2022-12-18T17:16:38;25.67;;;15.73;;
8139;SDS011;4111;50.972;7.072;2022-12-18T17:19:06;25.50;;;17.17;;
8139;SDS011;4111;50.972;7.072;2022-12-18T17:21:40;21.97;;;16.07;;
8139;SDS011;4111;50.972;7.072;2022-12-18T17:24:07;26.70;;;17.43;;
8139;SDS011;4111;50.972;7.072;2022-12-18T17:26:33;29.73;;;18.60;;
8139;SDS011;4111;50.972;7.072;2022-12-18T17:29:00;26.73;;;17.03;;
8139;SDS011;4111;50.972;7.072;2022-12-18T17:31:27;27.70;;;17.23;;